Time;durP1;ratioP1;P1;durP2;ratioP2;P2;SDS_P1;SDS_P2;PMS_P1;PMS_P2;Temp;Humidity;BMP_temperature;BMP_pressure;BME280_temperature;BME280_humidity;BME280_pressure;Samples;Min_cycle;Max_cycle;Signal;HPM_P1;HPM_P2
2022/02/18 00:00:38;;;;;;;;;;;24.60;43.60;;;;;;1519317;77;729;-70
2022/02/18 00:02:40;;;;;;;;;;;24.60;43.60;;;;;;1520362;77;1164;-70
2022/02/18 00:04:42;;;;;;;;;;;24.60;43.60;;;;;;1520347;77;790;-71
2022/02/18 00:06:43;;;;;;;;;;;24.50;43.70;;;;;;1520395;77;774;-71
2022/02/18 00:08:45;;;;;;;;;;;24.60;43.70;;;;;;1520109;77;783;-71
2022/02/18 00:10:47;;;;;;;;;;;24.60;43.70;;;;;;1520403;77;783;-72
2022/02/18 00:12:49;;;;;;;;;;;24.60;43.70;;;;;;1520437;77;1120;-74
2022/02/18 00:14:51;;;;;;;;;;;24.60;43.80;;;;;;1520291;77;1942;-70
2022/02/18 00:16:53;;;;;;;;;;;24.50;43.80;;;;;;1515530;77;704;-70
2022/02/18 00:18:55;;;;;;;;;;;24.50;43.80;;;;;;1520519;77;714;-70
2022/02/18 00:20:58;;;;;;;;;;;24.50;43.90;;;;;;1519430;77;687;-70
2022/02/18 00:23:00;;;;;;;;;;;24.50;43.90;;;;;;1520484;77;1166;-73
2022/02/18 00:25:02;;;;;;;;;;;24.50;43.90;;;;;;1520343;77;739;-73
2022/02/18 00:27:04;;;;;;;;;;;24.40;43.90;;;;;;1520407;77;752;-71
2022/02/18 00:29:06;;;;;;;;;;;24.50;43.90;;;;;;1520212;77;742;-73
2022/02/18 00:31:08;;;;;;;;;;;24.50;43.90;;;;;;1520308;77;770;-70
2022/02/18 00:33:10;;;;;;;;;;;24.50;44.00;;;;;;1520484;77;1124;-70
2022/02/18 00:35:19;;;;;;;;;;;24.50;44.10;;;;;;1520462;77;1933;-70
2022/02/18 00:37:17;;;;;;;;;;;24.50;44.00;;;;;;1519092;77;1140;-69
2022/02/18 00:39:19;;;;;;;;;;;24.50;44.00;;;;;;1520503;77;732;-72
2022/02/18 00:41:21;;;;;;;;;;;24.50;44.10;;;;;;1517855;77;733;-72
2022/02/18 00:43:23;;;;;;;;;;;24.50;44.10;;;;;;1520297;77;1148;-69
2022/02/18 00:45:25;;;;;;;;;;;24.40;44.00;;;;;;1520510;77;735;-71
2022/02/18 00:47:26;;;;;;;;;;;24.50;44.10;;;;;;1520259;77;743;-70
2022/02/18 00:49:28;;;;;;;;;;;24.40;44.00;;;;;;1519578;77;766;-69
2022/02/18 00:51:30;;;;;;;;;;;24.50;44.20;;;;;;1520544;77;746;-70
2022/02/18 00:53:33;;;;;;;;;;;24.50;44.20;;;;;;1520406;77;1938;-69
2022/02/18 00:55:35;;;;;;;;;;;24.40;44.20;;;;;;1520471;77;814;-70
2022/02/18 00:57:37;;;;;;;;;;;24.40;44.20;;;;;;1516761;77;825;-70
2022/02/18 00:59:38;;;;;;;;;;;24.40;44.20;;;;;;1520441;77;730;-70
2022/02/18 01:01:40;;;;;;;;;;;24.40;44.10;;;;;;1517746;77;804;-71
2022/02/18 01:03:42;;;;;;;;;;;24.40;44.20;;;;;;1520469;77;1151;-72
2022/02/18 01:05:44;;;;;;;;;;;24.50;44.30;;;;;;1527806;77;777;-69
2022/02/18 01:07:46;;;;;;;;;;;24.50;44.30;;;;;;1530181;77;679;-70
2022/02/18 01:09:48;;;;;;;;;;;24.40;44.20;;;;;;1515050;78;708;-69
2022/02/18 01:11:50;;;;;;;;;;;24.40;44.20;;;;;;1515071;78;711;-69
2022/02/18 01:13:52;;;;;;;;;;;24.50;44.30;;;;;;1515130;78;1955;-69
2022/02/18 01:15:53;;;;;;;;;;;24.40;44.20;;;;;;1515001;77;707;-70
2022/02/18 01:17:55;;;;;;;;;;;24.40;44.20;;;;;;1514251;78;723;-72
2022/02/18 01:19:57;;;;;;;;;;;24.40;44.20;;;;;;1514148;78;727;-69
2022/02/18 01:21:59;;;;;;;;;;;24.40;44.30;;;;;;1515183;78;1106;-69
2022/02/18 01:24:03;;;;;;;;;;;24.40;44.30;;;;;;1515200;78;715;-70
2022/02/18 01:26:05;;;;;;;;;;;24.40;44.30;;;;;;1514699;78;1662;-70
2022/02/18 01:28:07;;;;;;;;;;;24.30;44.30;;;;;;1515103;78;695;-72
2022/02/18 01:30:09;;;;;;;;;;;24.40;44.30;;;;;;1514244;78;718;-70
2022/02/18 01:32:11;;;;;;;;;;;24.40;44.20;;;;;;1514965;78;1124;-69
2022/02/18 01:34:14;;;;;;;;;;;24.30;44.30;;;;;;1515094;78;1931;-69
2022/02/18 01:36:16;;;;;;;;;;;24.40;44.30;;;;;;1514905;78;707;-69
2022/02/18 01:38:18;;;;;;;;;;;24.30;44.30;;;;;;1514735;78;734;-69
2022/02/18 01:40:20;;;;;;;;;;;24.40;44.30;;;;;;1515204;78;717;-69
2022/02/18 01:42:22;;;;;;;;;;;24.30;44.30;;;;;;1514903;78;1179;-69
2022/02/18 01:44:37;;;;;;;;;;;24.30;44.40;;;;;;1515060;78;747;-69
2022/02/18 01:46:39;;;;;;;;;;;24.30;44.40;;;;;;1514907;78;740;-72
2022/02/18 01:48:41;;;;;;;;;;;24.30;44.40;;;;;;1514765;78;726;-69
2022/02/18 01:50:43;;;;;;;;;;;24.40;44.40;;;;;;1514259;78;789;-69
2022/02/18 01:52:46;;;;;;;;;;;24.30;44.40;;;;;;1514983;78;1124;-69
2022/02/18 01:54:48;;;;;;;;;;;24.30;44.40;;;;;;1514214;78;1945;-70
2022/02/18 01:56:50;;;;;;;;;;;24.30;44.40;;;;;;1515119;78;690;-70
2022/02/18 01:58:52;;;;;;;;;;;24.30;44.40;;;;;;1514663;78;683;-70
2022/02/18 02:00:54;;;;;;;;;;;24.40;44.40;;;;;;1522180;77;758;-71
2022/02/18 02:02:56;;;;;;;;;;;24.30;44.40;;;;;;1531623;78;1182;-69
2022/02/18 02:04:58;;;;;;;;;;;24.30;44.40;;;;;;1531485;78;738;-70
2022/02/18 02:07:01;;;;;;;;;;;24.30;44.50;;;;;;1515406;78;867;-69
2022/02/18 02:09:03;;;;;;;;;;;24.30;44.40;;;;;;1514197;78;1115;-69
2022/02/18 02:11:05;;;;;;;;;;;24.30;44.40;;;;;;1515113;78;711;-70
2022/02/18 02:13:07;;;;;;;;;;;24.30;44.40;;;;;;1515096;78;1139;-72
2022/02/18 02:15:09;;;;;;;;;;;24.30;44.40;;;;;;1513951;78;1949;-72
2022/02/18 02:17:11;;;;;;;;;;;24.30;44.40;;;;;;1515090;78;912;-70
2022/02/18 02:19:13;;;;;;;;;;;24.30;44.40;;;;;;1514204;78;737;-72
2022/02/18 02:21:15;;;;;;;;;;;24.20;44.40;;;;;;1519422;77;722;-72
2022/02/18 02:23:17;;;;;;;;;;;24.30;44.50;;;;;;1522722;77;1128;-70
2022/02/18 02:25:19;;;;;;;;;;;24.30;44.50;;;;;;1514562;78;755;-69
2022/02/18 02:27:25;;;;;;;;;;;24.20;44.40;;;;;;1514244;78;743;-71
2022/02/18 02:29:24;;;;;;;;;;;24.30;44.50;;;;;;1512473;78;1637;-73
2022/02/18 02:31:26;;;;;;;;;;;24.20;44.40;;;;;;1513058;78;703;-70
2022/02/18 02:33:28;;;;;;;;;;;24.30;44.60;;;;;;1513965;78;1139;-71
2022/02/18 02:35:30;;;;;;;;;;;24.30;44.60;;;;;;1513721;78;1941;-73
2022/02/18 02:37:32;;;;;;;;;;;24.20;44.50;;;;;;1513836;78;732;-72
2022/02/18 02:39:34;;;;;;;;;;;24.20;44.40;;;;;;1513890;78;746;-70
2022/02/18 02:41:36;;;;;;;;;;;24.30;44.70;;;;;;1489010;80;721;-70
2022/02/18 02:43:38;;;;;;;;;;;24.30;44.70;;;;;;1518342;77;1139;-70
2022/02/18 02:45:39;;;;;;;;;;;24.20;44.50;;;;;;1527709;77;808;-70
2022/02/18 02:47:45;;;;;;;;;;;24.20;44.50;;;;;;1514047;78;710;-70
2022/02/18 02:49:47;;;;;;;;;;;24.30;44.70;;;;;;1513427;77;783;-72
2022/02/18 02:51:49;;;;;;;;;;;24.30;44.70;;;;;;1513753;77;732;-70
2022/02/18 02:53:51;;;;;;;;;;;24.20;44.60;;;;;;1513759;78;1130;-71
2022/02/18 02:55:53;;;;;;;;;;;24.20;44.50;;;;;;1507173;77;1959;-72
2022/02/18 02:57:55;;;;;;;;;;;24.30;44.60;;;;;;1527820;77;742;-69
2022/02/18 02:59:57;;;;;;;;;;;24.30;44.70;;;;;;1514111;77;843;-69
2022/02/18 03:01:59;;;;;;;;;;;24.20;44.50;;;;;;1515111;78;1192;-69
2022/02/18 03:04:01;;;;;;;;;;;24.30;44.70;;;;;;1513931;77;691;-69
2022/02/18 03:06:03;;;;;;;;;;;24.20;44.50;;;;;;1515050;78;710;-69
2022/02/18 03:08:05;;;;;;;;;;;24.30;44.70;;;;;;1514195;77;774;-70
2022/02/18 03:10:07;;;;;;;;;;;24.30;44.70;;;;;;1513720;78;729;-70
2022/02/18 03:12:09;;;;;;;;;;;24.20;44.60;;;;;;1513121;78;1152;-69
2022/02/18 03:14:11;;;;;;;;;;;24.20;44.60;;;;;;1515052;78;714;-69
2022/02/18 03:16:13;;;;;;;;;;;24.20;44.60;;;;;;1514839;78;1960;-70
2022/02/18 03:18:15;;;;;;;;;;;24.30;44.80;;;;;;1515158;78;737;-70
2022/02/18 03:20:17;;;;;;;;;;;24.20;44.70;;;;;;1514055;78;700;-71
2022/02/18 03:22:19;;;;;;;;;;;24.20;44.70;;;;;;1515095;78;1137;-69
2022/02/18 03:24:21;;;;;;;;;;;24.20;44.70;;;;;;1514616;77;805;-70
2022/02/18 03:26:23;;;;;;;;;;;24.20;44.70;;;;;;1513599;78;789;-69
2022/02/18 03:28:25;;;;;;;;;;;24.20;44.70;;;;;;1513401;78;805;-70
2022/02/18 03:30:27;;;;;;;;;;;24.20;44.70;;;;;;1515140;78;718;-69
2022/02/18 03:32:29;;;;;;;;;;;24.20;44.70;;;;;;1514869;77;1120;-72
2022/02/18 03:34:31;;;;;;;;;;;24.30;44.80;;;;;;1514995;78;1937;-69
2022/02/18 03:36:33;;;;;;;;;;;24.30;44.80;;;;;;1513972;78;696;-70
2022/02/18 03:38:34;;;;;;;;;;;24.20;44.70;;;;;;1515135;78;735;-69
2022/02/18 03:40:36;;;;;;;;;;;24.30;44.80;;;;;;1515237;78;554;-70
2022/02/18 03:42:38;;;;;;;;;;;24.30;44.80;;;;;;1515020;78;1159;-71
2022/02/18 03:44:40;;;;;;;;;;;24.30;44.80;;;;;;1515238;78;751;-70
2022/02/18 03:46:42;;;;;;;;;;;24.30;44.80;;;;;;1514794;78;756;-69
2022/02/18 03:48:44;;;;;;;;;;;24.40;44.70;;;;;;1514969;78;725;-69
2022/02/18 03:50:46;;;;;;;;;;;24.40;44.70;;;;;;1514184;78;698;-70
2022/02/18 03:52:51;;;;;;;;;;;24.50;44.60;;;;;;1515174;76;2106;-66
2022/02/18 03:54:53;;;;;;;;;;;24.50;44.50;;;;;;1527267;76;1932;-67
2022/02/18 03:56:55;;;;;;;;;;;24.60;44.50;;;;;;1529589;76;662;-68
2022/02/18 03:58:57;;;;;;;;;;;24.60;44.40;;;;;;1530559;77;712;-69
2022/02/18 04:00:58;;;;;;;;;;;24.70;44.50;;;;;;1529871;76;774;-69
2022/02/18 04:03:00;;;;;;;;;;;24.80;44.40;;;;;;1540199;76;1208;-69
2022/02/18 04:05:02;;;;;;;;;;;24.80;44.30;;;;;;1556529;76;699;-69
2022/02/18 04:07:05;;;;;;;;;;;24.80;44.30;;;;;;1556670;76;843;-70
2022/02/18 04:09:07;;;;;;;;;;;24.80;44.20;;;;;;1555664;75;769;-68
2022/02/18 04:11:09;;;;;;;;;;;24.80;44.20;;;;;;1556585;76;698;-69
2022/02/18 04:13:10;;;;;;;;;;;24.80;44.10;;;;;;1556186;75;1143;-73
2022/02/18 04:15:12;;;;;;;;;;;24.90;44.10;;;;;;1555650;76;1941;-70
2022/02/18 04:17:14;;;;;;;;;;;24.90;44.20;;;;;;1542691;76;691;-70
2022/02/18 04:19:16;;;;;;;;;;;24.80;44.10;;;;;;1554282;75;766;-70
2022/02/18 04:21:18;;;;;;;;;;;24.80;44.00;;;;;;1556524;76;777;-70
2022/02/18 04:23:20;;;;;;;;;;;24.90;44.10;;;;;;1556326;76;1143;-70
2022/02/18 04:25:22;;;;;;;;;;;24.90;44.00;;;;;;1555605;75;721;-70
2022/02/18 04:27:24;;;;;;;;;;;24.90;44.00;;;;;;1556491;76;661;-70
2022/02/18 04:29:25;;;;;;;;;;;24.90;43.90;;;;;;1556639;76;709;-70
2022/02/18 04:31:27;;;;;;;;;;;24.90;43.90;;;;;;1556378;76;738;-71
2022/02/18 04:33:29;;;;;;;;;;;24.90;43.80;;;;;;1555470;75;1123;-71
2022/02/18 04:35:31;;;;;;;;;;;24.90;43.80;;;;;;1556467;76;1945;-69
2022/02/18 04:37:33;;;;;;;;;;;24.90;43.80;;;;;;1556526;76;748;-71
2022/02/18 04:39:35;;;;;;;;;;;24.90;43.80;;;;;;1556560;76;803;-70
2022/02/18 04:41:42;;;;;;;;;;;24.90;43.70;;;;;;1555717;75;765;-70
2022/02/18 04:43:40;;;;;;;;;;;25.00;43.70;;;;;;1554482;76;1141;-70
2022/02/18 04:45:42;;;;;;;;;;;24.90;43.70;;;;;;1556459;76;720;-73
2022/02/18 04:47:44;;;;;;;;;;;24.90;43.60;;;;;;1556522;76;733;-70
2022/02/18 04:49:46;;;;;;;;;;;24.90;43.60;;;;;;1555494;75;733;-70
2022/02/18 04:51:49;;;;;;;;;;;24.90;43.60;;;;;;1556577;76;780;-71
2022/02/18 04:53:51;;;;;;;;;;;24.90;43.60;;;;;;1556183;76;1143;-71
2022/02/18 04:55:53;;;;;;;;;;;24.90;43.60;;;;;;1556282;76;1928;-69
2022/02/18 04:57:54;;;;;;;;;;;24.90;43.50;;;;;;1556741;75;776;-68
2022/02/18 04:59:56;;;;;;;;;;;25.00;43.50;;;;;;1555701;75;776;-69
2022/02/18 05:01:58;;;;;;;;;;;24.90;43.40;;;;;;1556138;75;912;-69
2022/02/18 05:04:00;;;;;;;;;;;24.90;43.40;;;;;;1552839;76;1175;-70
2022/02/18 05:06:02;;;;;;;;;;;24.90;43.40;;;;;;1541774;76;699;-70
2022/02/18 05:08:04;;;;;;;;;;;24.90;43.40;;;;;;1555615;75;673;-70
2022/02/18 05:10:07;;;;;;;;;;;24.90;43.40;;;;;;1556502;76;701;-73
2022/02/18 05:12:08;;;;;;;;;;;25.00;43.40;;;;;;1556473;76;687;-67
2022/02/18 05:14:10;;;;;;;;;;;24.90;43.60;;;;;;1556557;75;1087;-67
2022/02/18 05:16:12;;;;;;;;;;;24.90;43.50;;;;;;1556317;76;1931;-68
2022/02/18 05:18:14;;;;;;;;;;;25.00;43.30;;;;;;1555617;75;781;-67
2022/02/18 05:20:17;;;;;;;;;;;25.00;43.30;;;;;;1555742;75;713;-67
2022/02/18 05:22:18;;;;;;;;;;;25.10;43.20;;;;;;1555875;76;1119;-68
2022/02/18 05:24:20;;;;;;;;;;;25.00;43.20;;;;;;1556339;76;770;-67
2022/02/18 05:26:22;;;;;;;;;;;25.10;43.10;;;;;;1556121;76;696;-66
2022/02/18 05:28:24;;;;;;;;;;;25.00;43.10;;;;;;1555814;75;761;-67
2022/02/18 05:30:26;;;;;;;;;;;25.10;43.10;;;;;;1556189;76;702;-66
2022/02/18 05:32:28;;;;;;;;;;;25.10;43.00;;;;;;1556050;76;1153;-67
2022/02/18 05:34:30;;;;;;;;;;;25.20;43.00;;;;;;1555967;76;694;-67
2022/02/18 05:36:32;;;;;;;;;;;25.10;43.00;;;;;;1555088;75;1933;-66
2022/02/18 05:38:34;;;;;;;;;;;25.20;43.00;;;;;;1555968;76;771;-66
2022/02/18 05:40:36;;;;;;;;;;;25.00;43.00;;;;;;1556101;76;756;-66
2022/02/18 05:42:37;;;;;;;;;;;25.00;43.10;;;;;;1556078;76;1141;-66
2022/02/18 05:44:39;;;;;;;;;;;25.00;43.10;;;;;;1554888;75;788;-69
2022/02/18 05:46:41;;;;;;;;;;;25.00;43.10;;;;;;1556074;76;777;-66
2022/02/18 05:48:44;;;;;;;;;;;25.10;43.10;;;;;;1556122;76;774;-66
2022/02/18 05:50:47;;;;;;;;;;;25.00;43.10;;;;;;1553888;75;726;-67
2022/02/18 05:52:49;;;;;;;;;;;25.00;43.20;;;;;;1555094;76;1157;-66
2022/02/18 05:54:50;;;;;;;;;;;25.00;43.20;;;;;;1555969;76;780;-68
2022/02/18 05:56:52;;;;;;;;;;;25.00;43.20;;;;;;1556220;76;1923;-67
2022/02/18 05:58:54;;;;;;;;;;;25.10;43.20;;;;;;1562495;75;735;-66
2022/02/18 06:00:56;;;;;;;;;;;25.00;43.30;;;;;;1545862;76;787;-66
2022/02/18 06:02:58;;;;;;;;;;;25.00;43.40;;;;;;1556647;76;1126;-65
2022/02/18 06:05:01;;;;;;;;;;;24.90;43.60;;;;;;1556612;76;699;-67
2022/02/18 06:07:03;;;;;;;;;;;24.90;43.70;;;;;;1556078;75;661;-67
2022/02/18 06:09:05;;;;;;;;;;;24.90;43.60;;;;;;1556605;76;713;-68
2022/02/18 06:11:07;;;;;;;;;;;25.00;43.30;;;;;;1556457;76;773;-65
2022/02/18 06:13:09;;;;;;;;;;;25.00;43.20;;;;;;1556368;76;1151;-67
2022/02/18 06:15:10;;;;;;;;;;;25.20;43.10;;;;;;1556243;75;768;-69
2022/02/18 06:17:12;;;;;;;;;;;25.10;43.10;;;;;;1555741;75;1929;-67
2022/02/18 06:19:14;;;;;;;;;;;25.10;43.10;;;;;;1555403;75;669;-67
2022/02/18 06:21:16;;;;;;;;;;;25.10;43.00;;;;;;1556349;76;729;-68
2022/02/18 06:23:18;;;;;;;;;;;25.10;42.90;;;;;;1553093;76;1127;-67
2022/02/18 06:25:20;;;;;;;;;;;25.10;42.90;;;;;;1553535;76;724;-70
2022/02/18 06:27:22;;;;;;;;;;;25.10;42.90;;;;;;1552130;75;667;-66
2022/02/18 06:29:24;;;;;;;;;;;25.10;43.00;;;;;;1554221;76;782;-69
2022/02/18 06:31:25;;;;;;;;;;;25.00;43.00;;;;;;1556271;76;906;-66
2022/02/18 06:33:27;;;;;;;;;;;25.00;43.20;;;;;;1556187;76;1133;-67
2022/02/18 06:35:29;;;;;;;;;;;25.00;43.20;;;;;;1556163;75;709;-69
2022/02/18 06:37:31;;;;;;;;;;;25.00;43.10;;;;;;1555347;75;1936;-69
2022/02/18 06:39:35;;;;;;;;;;;25.10;43.10;;;;;;1556121;76;821;-66
2022/02/18 06:41:36;;;;;;;;;;;25.10;43.10;;;;;;1556087;76;1156;-68
2022/02/18 06:43:38;;;;;;;;;;;25.10;43.10;;;;;;1542085;76;1149;-68
2022/02/18 06:45:40;;;;;;;;;;;25.10;43.10;;;;;;1541547;76;691;-68
2022/02/18 06:47:42;;;;;;;;;;;25.00;43.00;;;;;;1539041;75;702;-69
2022/02/18 06:49:44;;;;;;;;;;;25.10;43.10;;;;;;1555641;75;730;-69
2022/02/18 06:51:48;;;;;;;;;;;25.10;43.00;;;;;;1556409;76;824;-69
2022/02/18 06:53:49;;;;;;;;;;;25.20;42.90;;;;;;1556510;76;1153;-67
2022/02/18 06:55:52;;;;;;;;;;;25.20;42.80;;;;;;1556351;76;1938;-67
2022/02/18 06:57:55;;;;;;;;;;;25.00;42.80;;;;;;1556375;76;712;-67
2022/02/18 06:59:57;;;;;;;;;;;25.10;42.80;;;;;;1553249;75;738;-69
2022/02/18 07:01:58;;;;;;;;;;;25.20;42.80;;;;;;1556487;76;780;-68
2022/02/18 07:04:00;;;;;;;;;;;25.10;42.80;;;;;;1556615;76;1056;-68
2022/02/18 07:06:05;;;;;;;;;;;25.10;42.70;;;;;;1556607;76;720;-67
2022/02/18 07:08:07;;;;;;;;;;;25.00;42.80;;;;;;1556198;75;688;-67
2022/02/18 07:10:09;;;;;;;;;;;25.00;42.70;;;;;;1556624;76;711;-67
2022/02/18 07:12:11;;;;;;;;;;;25.00;42.70;;;;;;1556490;76;718;-67
2022/02/18 07:14:13;;;;;;;;;;;25.10;42.70;;;;;;1556628;75;1091;-67
2022/02/18 07:16:15;;;;;;;;;;;25.00;42.80;;;;;;1556177;75;1931;-68
2022/02/18 07:18:17;;;;;;;;;;;25.00;42.70;;;;;;1547759;75;725;-73
2022/02/18 07:20:19;;;;;;;;;;;25.00;42.60;;;;;;1555280;75;770;-68
2022/02/18 07:22:20;;;;;;;;;;;24.90;42.60;;;;;;1553596;75;1154;-69
2022/02/18 07:24:22;;;;;;;;;;;24.90;42.50;;;;;;1556160;76;779;-68
2022/02/18 07:26:24;;;;;;;;;;;24.80;42.30;;;;;;1550164;76;739;-71
2022/02/18 07:28:26;;;;;;;;;;;24.70;42.10;;;;;;1545114;76;771;-69
2022/02/18 07:30:28;;;;;;;;;;;24.70;42.10;;;;;;1539516;75;825;-68
2022/02/18 07:32:30;;;;;;;;;;;24.60;41.80;;;;;;1545957;75;1146;-67
2022/02/18 07:34:32;;;;;;;;;;;24.60;41.70;;;;;;1552245;75;772;-67
2022/02/18 07:36:34;;;;;;;;;;;24.60;41.60;;;;;;1554945;76;1905;-68
2022/02/18 07:38:36;;;;;;;;;;;24.50;41.60;;;;;;1555560;75;690;-68
2022/02/18 07:40:37;;;;;;;;;;;24.50;41.50;;;;;;1556129;76;780;-68
2022/02/18 07:42:40;;;;;;;;;;;24.50;41.40;;;;;;1556272;76;1122;-71
2022/02/18 07:44:42;;;;;;;;;;;24.40;41.30;;;;;;1553171;76;811;-71
2022/02/18 07:46:44;;;;;;;;;;;24.40;41.30;;;;;;1553416;75;769;-70
2022/02/18 07:48:45;;;;;;;;;;;24.30;41.20;;;;;;1556455;76;862;-68
2022/02/18 07:50:47;;;;;;;;;;;24.30;41.20;;;;;;1553443;75;748;-67
2022/02/18 07:52:49;;;;;;;;;;;24.30;41.20;;;;;;1549024;75;1127;-68
2022/02/18 07:54:51;;;;;;;;;;;24.30;41.00;;;;;;1539561;76;769;-69
2022/02/18 07:56:53;;;;;;;;;;;24.20;41.00;;;;;;1544818;75;1976;-69
2022/02/18 07:58:55;;;;;;;;;;;24.20;40.90;;;;;;1548938;76;731;-68
2022/02/18 08:00:57;;;;;;;;;;;24.20;40.90;;;;;;1552651;76;776;-67
2022/02/18 08:02:59;;;;;;;;;;;24.20;40.90;;;;;;1556361;76;1182;-68
2022/02/18 08:05:01;;;;;;;;;;;24.20;40.70;;;;;;1556543;75;735;-70
2022/02/18 08:07:03;;;;;;;;;;;24.10;40.70;;;;;;1549023;75;740;-68
2022/02/18 08:09:04;;;;;;;;;;;24.10;40.60;;;;;;1556418;76;692;-68
2022/02/18 08:11:06;;;;;;;;;;;24.10;40.60;;;;;;1556346;76;900;-68
2022/02/18 08:13:08;;;;;;;;;;;24.00;40.50;;;;;;1556271;76;1192;-70
2022/02/18 08:15:10;;;;;;;;;;;24.00;40.40;;;;;;1541944;75;765;-68
2022/02/18 08:17:12;;;;;;;;;;;24.00;40.40;;;;;;1549879;76;1923;-68
2022/02/18 08:19:14;;;;;;;;;;;24.00;40.40;;;;;;1551282;75;762;-67
2022/02/18 08:21:16;;;;;;;;;;;24.00;40.30;;;;;;1542031;75;832;-69
2022/02/18 08:23:18;;;;;;;;;;;24.00;40.20;;;;;;1556454;76;1173;-67
2022/02/18 08:25:19;;;;;;;;;;;23.90;40.20;;;;;;1551138;76;1053;-67
2022/02/18 08:27:21;;;;;;;;;;;23.90;40.30;;;;;;1556556;76;736;-65
2022/02/18 08:29:23;;;;;;;;;;;23.90;40.20;;;;;;1555596;75;750;-67
2022/02/18 08:31:25;;;;;;;;;;;23.90;40.20;;;;;;1556538;76;805;-66
2022/02/18 08:33:27;;;;;;;;;;;23.80;39.90;;;;;;1547497;76;1256;-68
2022/02/18 08:35:29;;;;;;;;;;;23.80;39.70;;;;;;1552254;76;772;-68
2022/02/18 08:37:31;;;;;;;;;;;23.80;39.70;;;;;;1556382;76;1941;-69
2022/02/18 08:39:33;;;;;;;;;;;23.80;39.60;;;;;;1555358;75;740;-67
2022/02/18 08:41:35;;;;;;;;;;;23.80;39.50;;;;;;1547789;76;716;-69
2022/02/18 08:43:36;;;;;;;;;;;23.70;39.20;;;;;;1552959;76;1079;-66
2022/02/18 08:45:38;;;;;;;;;;;23.70;39.30;;;;;;1556344;76;797;-65
2022/02/18 08:47:40;;;;;;;;;;;23.70;39.20;;;;;;1548981;75;784;-64
2022/02/18 08:49:42;;;;;;;;;;;23.70;38.90;;;;;;1555291;75;767;-67
2022/02/18 08:51:44;;;;;;;;;;;23.70;38.70;;;;;;1556275;76;817;-67
2022/02/18 08:53:46;;;;;;;;;;;23.60;38.60;;;;;;1556220;76;1189;-67
2022/02/18 08:55:48;;;;;;;;;;;23.60;38.60;;;;;;1556044;76;801;-69
2022/02/18 08:57:51;;;;;;;;;;;23.60;38.90;;;;;;1535393;76;1925;-66
2022/02/18 08:59:53;;;;;;;;;;;23.60;38.70;;;;;;1556065;76;744;-66
2022/02/18 09:01:55;;;;;;;;;;;23.50;38.80;;;;;;1556146;76;717;-73
2022/02/18 09:03:56;;;;;;;;;;;23.50;39.00;;;;;;1556236;76;1141;-68
2022/02/18 09:05:58;;;;;;;;;;;23.50;38.80;;;;;;1555369;75;705;-66
2022/02/18 09:08:01;;;;;;;;;;;23.50;38.90;;;;;;1548004;75;718;-66
2022/02/18 09:10:02;;;;;;;;;;;23.40;38.90;;;;;;1543471;76;664;-66
2022/02/18 09:12:05;;;;;;;;;;;23.50;39.00;;;;;;1551643;76;725;-66
2022/02/18 09:14:07;;;;;;;;;;;23.40;38.90;;;;;;1556348;75;1147;-66
2022/02/18 09:16:09;;;;;;;;;;;23.50;39.00;;;;;;1549333;76;718;-66
2022/02/18 09:18:11;;;;;;;;;;;23.50;39.00;;;;;;1554295;76;1923;-66
2022/02/18 09:20:13;;;;;;;;;;;23.40;38.90;;;;;;1555557;75;762;-67
2022/02/18 09:22:15;;;;;;;;;;;23.40;38.70;;;;;;1556301;75;760;-66
2022/02/18 09:24:17;;;;;;;;;;;23.40;38.80;;;;;;1556522;76;1157;-66
2022/02/18 09:26:20;;;;;;;;;;;23.40;38.80;;;;;;1550877;76;712;-66
2022/02/18 09:28:23;;;;;;;;;;;23.40;38.80;;;;;;1554833;75;724;-68
2022/02/18 09:30:25;;;;;;;;;;;23.40;38.80;;;;;;1551369;76;795;-67
2022/02/18 09:32:27;;;;;;;;;;;23.40;38.70;;;;;;1556321;76;1142;-67
2022/02/18 09:34:29;;;;;;;;;;;23.40;38.80;;;;;;1556223;76;709;-67
2022/02/18 09:36:31;;;;;;;;;;;23.30;38.60;;;;;;1553461;75;782;-68
2022/02/18 09:38:33;;;;;;;;;;;23.30;38.90;;;;;;1556273;76;1941;-69
2022/02/18 09:40:35;;;;;;;;;;;23.30;38.60;;;;;;1549795;75;781;-72
2022/02/18 09:42:37;;;;;;;;;;;23.30;38.60;;;;;;1554727;75;1156;-69
2022/02/18 09:44:41;;;;;;;;;;;23.30;38.60;;;;;;1555353;75;840;-70
2022/02/18 09:46:43;;;;;;;;;;;23.30;38.60;;;;;;1556393;76;748;-68
2022/02/18 09:48:45;;;;;;;;;;;23.30;38.50;;;;;;1556050;76;788;-69
2022/02/18 09:50:47;;;;;;;;;;;23.30;38.40;;;;;;1555722;75;629;-66
2022/02/18 09:52:49;;;;;;;;;;;23.30;38.10;;;;;;1547256;76;2083;-68
2022/02/18 09:54:51;;;;;;;;;;;23.30;38.20;;;;;;1467274;80;730;-69
2022/02/18 09:56:52;;;;;;;;;;;23.20;37.90;;;;;;1467162;80;1941;-69
2022/02/18 09:58:54;;;;;;;;;;;23.20;37.90;;;;;;1465920;80;776;-68
2022/02/18 10:00:56;;;;;;;;;;;23.20;37.90;;;;;;1465882;80;746;-69
2022/02/18 10:02:59;;;;;;;;;;;23.20;37.80;;;;;;1471538;79;1276;-69
2022/02/18 10:05:01;;;;;;;;;;;23.20;37.70;;;;;;1491510;79;778;-68
2022/02/18 10:07:05;;;;;;;;;;;23.20;37.80;;;;;;1487662;79;710;-68
2022/02/18 10:09:07;;;;;;;;;;;23.20;37.70;;;;;;1459907;79;711;-68
2022/02/18 10:11:08;;;;;;;;;;;23.20;37.70;;;;;;1491421;79;759;-68
2022/02/18 10:13:24;;;;;;;;;;;23.10;37.50;;;;;;1507663;79;1166;-68
2022/02/18 10:15:26;;;;;;;;;;;23.10;37.60;;;;;;1439555;79;1132;-68
2022/02/18 10:17:41;;;;;;;;;;;23.10;37.50;;;;;;1506703;79;1926;-69
2022/02/18 10:19:50;;;;;;;;;;;23.00;37.30;;;;;;1485420;79;669;-68
2022/02/18 10:21:53;;;;;;;;;;;23.10;37.50;;;;;;1491152;79;831;-68
2022/02/18 10:24:09;;;;;;;;;;;23.10;37.80;;;;;;1492527;79;1904;-68
2022/02/18 10:26:11;;;;;;;;;;;23.00;37.80;;;;;;1486245;79;781;-68
2022/02/18 10:28:13;;;;;;;;;;;23.00;37.90;;;;;;1490446;79;737;-68
2022/02/18 10:30:22;;;;;;;;;;;23.10;37.90;;;;;;1489188;79;710;-68
2022/02/18 10:32:24;;;;;;;;;;;23.10;38.10;;;;;;1490109;79;706;-68
2022/02/18 10:34:29;;;;;;;;;;;23.00;38.10;;;;;;1485918;79;1122;-69
2022/02/18 10:36:36;;;;;;;;;;;23.00;37.70;;;;;;1507328;79;1681;-68
2022/02/18 10:38:38;;;;;;;;;;;23.10;37.90;;;;;;1492969;79;1939;-69
2022/02/18 10:40:41;;;;;;;;;;;23.10;38.30;;;;;;1501654;79;753;-66
2022/02/18 10:42:43;;;;;;;;;;;23.10;38.30;;;;;;1507775;79;1152;-68
2022/02/18 10:44:45;;;;;;;;;;;23.10;38.30;;;;;;1491618;79;724;-68
2022/02/18 10:46:55;;;;;;;;;;;23.00;38.40;;;;;;1492314;79;678;-68
2022/02/18 10:48:53;;;;;;;;;;;23.10;38.40;;;;;;1490970;79;1710;-68
2022/02/18 10:51:09;;;;;;;;;;;23.10;38.60;;;;;;1491730;79;1677;-68
2022/02/18 10:53:20;;;;;;;;;;;23.00;38.40;;;;;;1478535;79;1353;-68
2022/02/18 10:55:22;;;;;;;;;;;23.00;38.40;;;;;;1490415;79;713;-68
2022/02/18 10:57:25;;;;;;;;;;;23.00;38.50;;;;;;1486584;79;1918;-68
2022/02/18 10:59:30;;;;;;;;;;;23.00;38.10;;;;;;1494581;79;676;-69
2022/02/18 11:01:32;;;;;;;;;;;23.00;38.20;;;;;;1502799;79;710;-68
2022/02/18 11:03:35;;;;;;;;;;;23.10;38.30;;;;;;1496509;79;1252;-68
2022/02/18 11:05:37;;;;;;;;;;;23.00;38.10;;;;;;1493257;79;712;-68
2022/02/18 11:07:40;;;;;;;;;;;23.00;38.50;;;;;;1494129;79;816;-68
2022/02/18 11:09:42;;;;;;;;;;;23.10;38.60;;;;;;1493460;79;824;-68
2022/02/18 11:11:47;;;;;;;;;;;23.00;38.50;;;;;;1485442;79;743;-68
2022/02/18 11:13:49;;;;;;;;;;;23.10;38.80;;;;;;1493818;79;1107;-68
2022/02/18 11:15:51;;;;;;;;;;;23.00;38.40;;;;;;1507224;79;746;-69
2022/02/18 11:17:53;;;;;;;;;;;23.00;38.40;;;;;;1507548;79;1929;-70
2022/02/18 11:19:55;;;;;;;;;;;23.10;38.50;;;;;;1496579;79;760;-69
2022/02/18 11:21:57;;;;;;;;;;;23.00;38.40;;;;;;1508131;77;746;-68
2022/02/18 11:23:59;;;;;;;;;;;23.10;38.50;;;;;;1496683;79;1133;-68
2022/02/18 11:26:01;;;;;;;;;;;23.00;38.70;;;;;;1506913;79;781;-69
2022/02/18 11:28:05;;;;;;;;;;;23.10;38.80;;;;;;1496175;79;1012;-68
2022/02/18 11:30:07;;;;;;;;;;;23.00;38.70;;;;;;1504375;79;1633;-69
2022/02/18 11:32:13;;;;;;;;;;;23.00;38.90;;;;;;1488632;79;825;-68
2022/02/18 11:34:26;;;;;;;;;;;23.00;38.80;;;;;;1507013;78;1713;-69
2022/02/18 11:36:29;;;;;;;;;;;23.00;38.80;;;;;;1467898;79;1826;-68
2022/02/18 11:38:33;;;;;;;;;;;23.00;38.60;;;;;;1465641;79;1936;-68
2022/02/18 11:40:36;;;;;;;;;;;23.00;38.40;;;;;;1467563;79;1865;-68
2022/02/18 11:42:47;;;;;;;;;;;23.00;38.50;;;;;;1493688;77;1842;-69
2022/02/18 11:44:48;;;;;;;;;;;23.00;38.00;;;;;;1507801;77;1547;-69
2022/02/18 11:46:52;;;;;;;;;;;23.00;38.00;;;;;;1517837;77;1060;-68
2022/02/18 11:48:56;;;;;;;;;;;23.00;38.20;;;;;;1525104;77;1617;-69
2022/02/18 11:51:14;;;;;;;;;;;23.00;38.20;;;;;;1472817;79;680;-68
2022/02/18 11:53:17;;;;;;;;;;;23.00;38.10;;;;;;1482906;79;1195;-68
2022/02/18 11:55:27;;;;;;;;;;;23.00;38.00;;;;;;1469118;79;1776;-68
2022/02/18 11:57:31;;;;;;;;;;;22.90;38.00;;;;;;1470913;79;1909;-69
2022/02/18 11:59:42;;;;;;;;;;;22.90;38.10;;;;;;1472711;79;717;-68
2022/02/18 12:02:00;;;;;;;;;;;22.90;38.00;;;;;;1473096;79;747;-68
2022/02/18 12:04:21;;;;;;;;;;;22.90;37.70;;;;;;1464285;79;1180;-69
2022/02/18 12:06:25;;;;;;;;;;;22.90;37.60;;;;;;1473351;79;858;-68
2022/02/18 12:08:30;;;;;;;;;;;22.90;37.50;;;;;;1468905;80;723;-68
2022/02/18 12:10:33;;;;;;;;;;;22.90;37.60;;;;;;1474690;79;694;-68